sensor_id;sensor_type;location;lat;lon;timestamp;P1;durP1;ratioP1;P2;durP2;ratioP2
1831;SDS011;1680;48.106;11.708;2023-07-24T00:00:47;11.23;;;8.87;;
1831;SDS011;1680;48.106;11.708;2023-07-24T00:03:14;12.43;;;8.83;;
1831;SDS011;1680;48.106;11.708;2023-07-24T00:05:42;10.20;;;8.43;;
1831;SDS011;1680;48.106;11.708;2023-07-24T00:08:09;9.20;;;8.17;;
1831;SDS011;1680;48.106;11.708;2023-07-24T00:10:36;9.77;;;8.30;;
1831;SDS011;1680;48.106;11.708;2023-07-24T00:13:04;11.43;;;8.70;;
1831;SDS011;1680;48.106;11.708;2023-07-24T00:15:32;9.47;;;8.47;;
1831;SDS011;1680;48.106;11.708;2023-07-24T00:17:59;8.90;;;8.00;;
1831;SDS011;1680;48.106;11.708;2023-07-24T00:20:26;11.40;;;8.57;;
1831;SDS011;1680;48.106;11.708;2023-07-24T00:22:53;8.13;;;7.30;;
1831;SDS011;1680;48.106;11.708;2023-07-24T00:25:20;9.20;;;8.27;;
1831;SDS011;1680;48.106;11.708;2023-07-24T00:27:47;9.00;;;8.10;;
1831;SDS011;1680;48.106;11.708;2023-07-24T00:30:17;9.60;;;8.50;;
1831;SDS011;1680;48.106;11.708;2023-07-24T00:32:44;8.20;;;7.03;;
1831;SDS011;1680;48.106;11.708;2023-07-24T00:35:11;10.83;;;8.00;;
1831;SDS011;1680;48.106;11.708;2023-07-24T00:37:38;9.07;;;8.17;;
1831;SDS011;1680;48.106;11.708;2023-07-24T00:40:06;9.80;;;8.30;;
1831;SDS011;1680;48.106;11.708;2023-07-24T00:42:34;8.80;;;7.70;;
1831;SDS011;1680;48.106;11.708;2023-07-24T00:45:01;8.27;;;7.37;;
1831;SDS011;1680;48.106;11.708;2023-07-24T00:47:30;9.10;;;8.20;;
1831;SDS011;1680;48.106;11.708;2023-07-24T00:49:57;10.03;;;7.50;;
1831;SDS011;1680;48.106;11.708;2023-07-24T00:52:24;7.80;;;6.87;;
1831;SDS011;1680;48.106;11.708;2023-07-24T00:54:52;8.73;;;7.73;;
1831;SDS011;1680;48.106;11.708;2023-07-24T00:57:20;9.43;;;7.63;;
1831;SDS011;1680;48.106;11.708;2023-07-24T00:59:48;8.93;;;8.00;;
1831;SDS011;1680;48.106;11.708;2023-07-24T01:02:15;8.93;;;7.60;;
1831;SDS011;1680;48.106;11.708;2023-07-24T01:04:44;8.70;;;7.80;;
1831;SDS011;1680;48.106;11.708;2023-07-24T01:07:11;9.50;;;8.13;;
1831;SDS011;1680;48.106;11.708;2023-07-24T01:09:38;8.60;;;7.60;;
1831;SDS011;1680;48.106;11.708;2023-07-24T01:12:07;8.90;;;7.67;;
1831;SDS011;1680;48.106;11.708;2023-07-24T01:14:47;8.03;;;7.10;;
1831;SDS011;1680;48.106;11.708;2023-07-24T01:17:20;8.73;;;7.80;;
1831;SDS011;1680;48.106;11.708;2023-07-24T01:19:52;9.17;;;7.87;;
1831;SDS011;1680;48.106;11.708;2023-07-24T01:22:24;8.60;;;7.80;;
1831;SDS011;1680;48.106;11.708;2023-07-24T01:25:04;8.37;;;7.57;;
1831;SDS011;1680;48.106;11.708;2023-07-24T01:27:41;8.67;;;7.77;;
1831;SDS011;1680;48.106;11.708;2023-07-24T01:30:09;11.00;;;7.20;;
1831;SDS011;1680;48.106;11.708;2023-07-24T01:32:37;7.87;;;7.07;;
1831;SDS011;1680;48.106;11.708;2023-07-24T01:35:04;8.27;;;7.37;;
1831;SDS011;1680;48.106;11.708;2023-07-24T01:37:33;8.73;;;7.80;;
1831;SDS011;1680;48.106;11.708;2023-07-24T01:40:02;7.97;;;7.17;;
1831;SDS011;1680;48.106;11.708;2023-07-24T01:42:30;8.80;;;7.80;;
1831;SDS011;1680;48.106;11.708;2023-07-24T01:44:59;8.87;;;7.47;;
1831;SDS011;1680;48.106;11.708;2023-07-24T01:47:26;8.17;;;7.37;;
1831;SDS011;1680;48.106;11.708;2023-07-24T01:49:54;8.97;;;7.30;;
1831;SDS011;1680;48.106;11.708;2023-07-24T01:52:22;8.53;;;7.53;;
1831;SDS011;1680;48.106;11.708;2023-07-24T01:54:49;8.60;;;7.70;;
1831;SDS011;1680;48.106;11.708;2023-07-24T01:57:16;8.80;;;7.63;;
1831;SDS011;1680;48.106;11.708;2023-07-24T01:59:43;8.50;;;7.40;;
1831;SDS011;1680;48.106;11.708;2023-07-24T02:02:12;8.67;;;7.73;;
1831;SDS011;1680;48.106;11.708;2023-07-24T02:04:39;9.67;;;8.17;;
1831;SDS011;1680;48.106;11.708;2023-07-24T02:07:06;8.97;;;8.07;;
1831;SDS011;1680;48.106;11.708;2023-07-24T02:09:33;9.50;;;8.30;;
1831;SDS011;1680;48.106;11.708;2023-07-24T02:12:00;9.13;;;8.23;;
1831;SDS011;1680;48.106;11.708;2023-07-24T02:14:27;9.80;;;7.87;;
1831;SDS011;1680;48.106;11.708;2023-07-24T02:16:55;11.87;;;7.60;;
1831;SDS011;1680;48.106;11.708;2023-07-24T02:19:23;8.70;;;7.73;;
1831;SDS011;1680;48.106;11.708;2023-07-24T02:21:50;8.13;;;7.30;;
1831;SDS011;1680;48.106;11.708;2023-07-24T02:24:17;11.67;;;8.80;;
1831;SDS011;1680;48.106;11.708;2023-07-24T02:26:44;9.20;;;8.20;;
1831;SDS011;1680;48.106;11.708;2023-07-24T02:29:12;8.10;;;7.30;;
1831;SDS011;1680;48.106;11.708;2023-07-24T02:31:39;8.63;;;7.83;;
1831;SDS011;1680;48.106;11.708;2023-07-24T02:34:06;8.23;;;7.43;;
1831;SDS011;1680;48.106;11.708;2023-07-24T02:36:34;8.10;;;7.30;;
1831;SDS011;1680;48.106;11.708;2023-07-24T02:39:01;8.03;;;7.23;;
1831;SDS011;1680;48.106;11.708;2023-07-24T02:41:29;9.07;;;7.83;;
1831;SDS011;1680;48.106;11.708;2023-07-24T02:43:56;8.20;;;7.17;;
1831;SDS011;1680;48.106;11.708;2023-07-24T02:46:23;8.80;;;7.80;;
1831;SDS011;1680;48.106;11.708;2023-07-24T02:48:50;8.07;;;7.27;;
1831;SDS011;1680;48.106;11.708;2023-07-24T02:51:18;8.40;;;7.57;;
1831;SDS011;1680;48.106;11.708;2023-07-24T02:53:46;9.03;;;7.50;;
1831;SDS011;1680;48.106;11.708;2023-07-24T02:56:13;9.03;;;8.13;;
1831;SDS011;1680;48.106;11.708;2023-07-24T02:58:40;8.77;;;7.87;;
1831;SDS011;1680;48.106;11.708;2023-07-24T03:01:07;8.77;;;7.80;;
1831;SDS011;1680;48.106;11.708;2023-07-24T03:03:35;9.10;;;7.70;;
1831;SDS011;1680;48.106;11.708;2023-07-24T03:06:02;9.53;;;8.53;;
1831;SDS011;1680;48.106;11.708;2023-07-24T03:08:30;11.00;;;8.43;;
1831;SDS011;1680;48.106;11.708;2023-07-24T03:10:58;9.03;;;8.10;;
1831;SDS011;1680;48.106;11.708;2023-07-24T03:13:27;10.43;;;9.43;;
1831;SDS011;1680;48.106;11.708;2023-07-24T03:15:56;9.20;;;8.40;;
1831;SDS011;1680;48.106;11.708;2023-07-24T03:18:24;9.57;;;8.27;;
1831;SDS011;1680;48.106;11.708;2023-07-24T03:20:51;10.90;;;9.07;;
1831;SDS011;1680;48.106;11.708;2023-07-24T03:23:19;10.97;;;8.77;;
1831;SDS011;1680;48.106;11.708;2023-07-24T03:25:46;14.30;;;8.37;;
1831;SDS011;1680;48.106;11.708;2023-07-24T03:28:15;10.47;;;9.17;;
1831;SDS011;1680;48.106;11.708;2023-07-24T03:30:42;12.00;;;9.80;;
1831;SDS011;1680;48.106;11.708;2023-07-24T03:33:09;12.00;;;9.40;;
1831;SDS011;1680;48.106;11.708;2023-07-24T03:35:37;10.23;;;8.77;;
1831;SDS011;1680;48.106;11.708;2023-07-24T03:38:06;10.80;;;9.57;;
1831;SDS011;1680;48.106;11.708;2023-07-24T03:40:33;12.23;;;10.93;;
1831;SDS011;1680;48.106;11.708;2023-07-24T03:43:00;11.77;;;9.70;;
1831;SDS011;1680;48.106;11.708;2023-07-24T03:45:28;9.87;;;8.83;;
1831;SDS011;1680;48.106;11.708;2023-07-24T03:47:55;16.70;;;11.30;;
1831;SDS011;1680;48.106;11.708;2023-07-24T03:50:22;11.77;;;9.20;;
1831;SDS011;1680;48.106;11.708;2023-07-24T03:52:50;11.80;;;10.03;;
1831;SDS011;1680;48.106;11.708;2023-07-24T03:55:17;12.70;;;10.60;;
1831;SDS011;1680;48.106;11.708;2023-07-24T03:57:44;11.63;;;9.00;;
1831;SDS011;1680;48.106;11.708;2023-07-24T04:00:11;11.03;;;9.90;;
1831;SDS011;1680;48.106;11.708;2023-07-24T04:02:41;11.87;;;10.00;;
1831;SDS011;1680;48.106;11.708;2023-07-24T04:05:08;11.90;;;10.00;;
1831;SDS011;1680;48.106;11.708;2023-07-24T04:07:35;13.07;;;10.07;;
1831;SDS011;1680;48.106;11.708;2023-07-24T04:10:03;12.10;;;9.97;;
1831;SDS011;1680;48.106;11.708;2023-07-24T04:12:31;12.70;;;9.80;;
1831;SDS011;1680;48.106;11.708;2023-07-24T04:14:58;11.30;;;10.10;;
1831;SDS011;1680;48.106;11.708;2023-07-24T04:17:25;12.10;;;10.80;;
1831;SDS011;1680;48.106;11.708;2023-07-24T04:19:54;14.77;;;11.00;;
1831;SDS011;1680;48.106;11.708;2023-07-24T04:22:21;13.50;;;10.20;;
1831;SDS011;1680;48.106;11.708;2023-07-24T04:24:48;10.30;;;9.27;;
1831;SDS011;1680;48.106;11.708;2023-07-24T04:27:15;11.73;;;9.77;;
1831;SDS011;1680;48.106;11.708;2023-07-24T04:29:42;12.57;;;10.10;;
1831;SDS011;1680;48.106;11.708;2023-07-24T04:32:09;10.87;;;9.77;;
1831;SDS011;1680;48.106;11.708;2023-07-24T04:34:36;10.77;;;9.47;;
1831;SDS011;1680;48.106;11.708;2023-07-24T04:37:05;12.90;;;10.10;;
1831;SDS011;1680;48.106;11.708;2023-07-24T04:39:32;12.33;;;10.97;;
1831;SDS011;1680;48.106;11.708;2023-07-24T04:41:59;12.10;;;10.77;;
1831;SDS011;1680;48.106;11.708;2023-07-24T04:44:26;11.80;;;9.50;;
1831;SDS011;1680;48.106;11.708;2023-07-24T04:46:53;12.90;;;10.77;;
1831;SDS011;1680;48.106;11.708;2023-07-24T04:49:21;13.17;;;10.07;;
1831;SDS011;1680;48.106;11.708;2023-07-24T04:51:49;14.60;;;10.10;;
1831;SDS011;1680;48.106;11.708;2023-07-24T04:54:18;12.43;;;9.30;;
1831;SDS011;1680;48.106;11.708;2023-07-24T04:56:45;11.40;;;9.63;;
1831;SDS011;1680;48.106;11.708;2023-07-24T04:59:12;13.03;;;10.40;;
1831;SDS011;1680;48.106;11.708;2023-07-24T05:01:39;12.40;;;10.47;;
1831;SDS011;1680;48.106;11.708;2023-07-24T05:04:06;14.20;;;10.40;;
1831;SDS011;1680;48.106;11.708;2023-07-24T05:06:34;12.93;;;11.07;;
1831;SDS011;1680;48.106;11.708;2023-07-24T05:09:02;11.77;;;9.83;;
1831;SDS011;1680;48.106;11.708;2023-07-24T05:11:31;11.37;;;8.80;;
1831;SDS011;1680;48.106;11.708;2023-07-24T05:13:58;12.80;;;10.67;;
1831;SDS011;1680;48.106;11.708;2023-07-24T05:16:25;11.27;;;10.07;;
1831;SDS011;1680;48.106;11.708;2023-07-24T05:18:52;13.60;;;10.10;;
1831;SDS011;1680;48.106;11.708;2023-07-24T05:21:19;11.50;;;10.30;;
1831;SDS011;1680;48.106;11.708;2023-07-24T05:23:46;12.03;;;9.90;;
1831;SDS011;1680;48.106;11.708;2023-07-24T05:26:19;10.40;;;9.37;;
1831;SDS011;1680;48.106;11.708;2023-07-24T05:28:51;10.50;;;9.50;;
1831;SDS011;1680;48.106;11.708;2023-07-24T05:31:18;13.83;;;10.20;;
1831;SDS011;1680;48.106;11.708;2023-07-24T05:33:46;10.13;;;9.13;;
1831;SDS011;1680;48.106;11.708;2023-07-24T05:36:13;11.67;;;10.13;;
1831;SDS011;1680;48.106;11.708;2023-07-24T05:38:40;11.30;;;9.70;;
1831;SDS011;1680;48.106;11.708;2023-07-24T05:41:07;10.43;;;9.30;;
1831;SDS011;1680;48.106;11.708;2023-07-24T05:43:34;12.50;;;10.30;;
1831;SDS011;1680;48.106;11.708;2023-07-24T05:46:03;10.63;;;9.13;;
1831;SDS011;1680;48.106;11.708;2023-07-24T05:48:30;11.30;;;10.03;;
1831;SDS011;1680;48.106;11.708;2023-07-24T05:50:57;11.07;;;9.10;;
1831;SDS011;1680;48.106;11.708;2023-07-24T05:53:24;11.10;;;9.67;;
1831;SDS011;1680;48.106;11.708;2023-07-24T05:56:00;11.10;;;9.20;;
1831;SDS011;1680;48.106;11.708;2023-07-24T05:58:28;12.90;;;9.60;;
1831;SDS011;1680;48.106;11.708;2023-07-24T06:00:55;13.93;;;9.87;;
1831;SDS011;1680;48.106;11.708;2023-07-24T06:03:24;10.50;;;9.20;;
1831;SDS011;1680;48.106;11.708;2023-07-24T06:05:51;10.43;;;9.23;;
1831;SDS011;1680;48.106;11.708;2023-07-24T06:08:19;10.27;;;9.27;;
1831;SDS011;1680;48.106;11.708;2023-07-24T06:10:46;9.77;;;8.77;;
1831;SDS011;1680;48.106;11.708;2023-07-24T06:13:14;10.93;;;9.43;;
1831;SDS011;1680;48.106;11.708;2023-07-24T06:15:42;9.97;;;8.97;;
1831;SDS011;1680;48.106;11.708;2023-07-24T06:18:09;10.93;;;9.77;;
1831;SDS011;1680;48.106;11.708;2023-07-24T06:20:38;14.10;;;9.87;;
1831;SDS011;1680;48.106;11.708;2023-07-24T06:23:05;13.60;;;10.23;;
1831;SDS011;1680;48.106;11.708;2023-07-24T06:25:33;10.10;;;9.20;;
1831;SDS011;1680;48.106;11.708;2023-07-24T06:28:00;11.43;;;9.77;;
1831;SDS011;1680;48.106;11.708;2023-07-24T06:30:27;11.33;;;10.13;;
1831;SDS011;1680;48.106;11.708;2023-07-24T06:32:54;11.17;;;9.27;;
1831;SDS011;1680;48.106;11.708;2023-07-24T06:35:21;11.10;;;8.90;;
1831;SDS011;1680;48.106;11.708;2023-07-24T06:37:49;14.30;;;9.30;;
1831;SDS011;1680;48.106;11.708;2023-07-24T06:40:17;11.53;;;10.23;;
1831;SDS011;1680;48.106;11.708;2023-07-24T06:42:44;12.93;;;9.60;;
1831;SDS011;1680;48.106;11.708;2023-07-24T06:45:12;9.97;;;8.97;;
1831;SDS011;1680;48.106;11.708;2023-07-24T06:47:39;10.63;;;9.63;;
1831;SDS011;1680;48.106;11.708;2023-07-24T06:50:07;11.97;;;10.30;;
1831;SDS011;1680;48.106;11.708;2023-07-24T06:52:34;11.07;;;9.73;;
1831;SDS011;1680;48.106;11.708;2023-07-24T06:55:03;11.93;;;10.43;;
1831;SDS011;1680;48.106;11.708;2023-07-24T06:57:30;10.83;;;9.63;;
1831;SDS011;1680;48.106;11.708;2023-07-24T06:59:57;12.10;;;10.27;;
1831;SDS011;1680;48.106;11.708;2023-07-24T07:02:25;11.40;;;9.97;;
1831;SDS011;1680;48.106;11.708;2023-07-24T07:04:53;11.27;;;10.00;;
1831;SDS011;1680;48.106;11.708;2023-07-24T07:07:20;11.50;;;9.70;;
1831;SDS011;1680;48.106;11.708;2023-07-24T07:09:48;10.73;;;9.60;;
1831;SDS011;1680;48.106;11.708;2023-07-24T07:12:16;10.60;;;9.50;;
1831;SDS011;1680;48.106;11.708;2023-07-24T07:14:43;10.33;;;9.23;;
1831;SDS011;1680;48.106;11.708;2023-07-24T07:17:10;10.37;;;8.90;;
1831;SDS011;1680;48.106;11.708;2023-07-24T07:19:38;10.53;;;9.43;;
1831;SDS011;1680;48.106;11.708;2023-07-24T07:22:05;10.43;;;9.13;;
1831;SDS011;1680;48.106;11.708;2023-07-24T07:24:32;11.07;;;9.97;;
1831;SDS011;1680;48.106;11.708;2023-07-24T07:26:59;11.03;;;9.83;;
1831;SDS011;1680;48.106;11.708;2023-07-24T07:29:28;10.80;;;9.67;;
1831;SDS011;1680;48.106;11.708;2023-07-24T07:31:56;10.17;;;9.17;;
1831;SDS011;1680;48.106;11.708;2023-07-24T07:34:23;9.80;;;8.90;;
1831;SDS011;1680;48.106;11.708;2023-07-24T07:36:50;11.97;;;10.67;;
1831;SDS011;1680;48.106;11.708;2023-07-24T07:39:17;13.00;;;10.33;;
1831;SDS011;1680;48.106;11.708;2023-07-24T07:41:45;11.30;;;10.10;;
1831;SDS011;1680;48.106;11.708;2023-07-24T07:44:12;10.60;;;9.40;;
1831;SDS011;1680;48.106;11.708;2023-07-24T07:46:40;10.10;;;9.10;;
1831;SDS011;1680;48.106;11.708;2023-07-24T07:49:07;11.27;;;10.07;;
1831;SDS011;1680;48.106;11.708;2023-07-24T07:51:34;11.20;;;10.07;;
1831;SDS011;1680;48.106;11.708;2023-07-24T07:54:02;12.87;;;10.77;;
1831;SDS011;1680;48.106;11.708;2023-07-24T07:56:30;11.33;;;8.77;;
1831;SDS011;1680;48.106;11.708;2023-07-24T07:58:57;13.17;;;9.67;;
1831;SDS011;1680;48.106;11.708;2023-07-24T08:01:25;10.57;;;9.50;;
1831;SDS011;1680;48.106;11.708;2023-07-24T08:03:54;10.90;;;9.27;;
1831;SDS011;1680;48.106;11.708;2023-07-24T08:06:21;10.73;;;9.63;;
1831;SDS011;1680;48.106;11.708;2023-07-24T08:08:48;10.80;;;9.10;;
1831;SDS011;1680;48.106;11.708;2023-07-24T08:11:15;11.17;;;9.37;;
1831;SDS011;1680;48.106;11.708;2023-07-24T08:13:42;11.40;;;10.20;;
1831;SDS011;1680;48.106;11.708;2023-07-24T08:16:12;11.70;;;10.50;;
1831;SDS011;1680;48.106;11.708;2023-07-24T08:18:43;12.00;;;10.37;;
1831;SDS011;1680;48.106;11.708;2023-07-24T08:21:12;10.70;;;9.67;;
1831;SDS011;1680;48.106;11.708;2023-07-24T08:23:39;10.40;;;8.90;;
1831;SDS011;1680;48.106;11.708;2023-07-24T08:26:06;11.50;;;9.17;;
1831;SDS011;1680;48.106;11.708;2023-07-24T08:28:34;12.77;;;10.10;;
1831;SDS011;1680;48.106;11.708;2023-07-24T08:31:01;9.73;;;8.73;;
1831;SDS011;1680;48.106;11.708;2023-07-24T08:33:28;9.30;;;7.97;;
1831;SDS011;1680;48.106;11.708;2023-07-24T08:35:59;10.10;;;9.00;;
1831;SDS011;1680;48.106;11.708;2023-07-24T08:38:28;10.37;;;8.07;;
1831;SDS011;1680;48.106;11.708;2023-07-24T08:41:02;9.70;;;8.37;;
1831;SDS011;1680;48.106;11.708;2023-07-24T08:43:31;10.20;;;8.90;;
1831;SDS011;1680;48.106;11.708;2023-07-24T08:45:59;11.43;;;9.63;;
1831;SDS011;1680;48.106;11.708;2023-07-24T08:48:28;10.30;;;9.07;;
1831;SDS011;1680;48.106;11.708;2023-07-24T08:50:59;10.63;;;9.40;;
1831;SDS011;1680;48.106;11.708;2023-07-24T08:53:26;10.30;;;9.30;;
1831;SDS011;1680;48.106;11.708;2023-07-24T08:55:57;10.37;;;9.33;;
1831;SDS011;1680;48.106;11.708;2023-07-24T08:58:26;11.33;;;8.73;;
1831;SDS011;1680;48.106;11.708;2023-07-24T09:00:53;9.27;;;8.27;;
1831;SDS011;1680;48.106;11.708;2023-07-24T09:03:22;9.47;;;8.40;;
1831;SDS011;1680;48.106;11.708;2023-07-24T09:05:49;9.47;;;8.37;;
1831;SDS011;1680;48.106;11.708;2023-07-24T09:08:34;11.07;;;8.90;;
1831;SDS011;1680;48.106;11.708;2023-07-24T09:11:03;13.77;;;8.50;;
1831;SDS011;1680;48.106;11.708;2023-07-24T09:13:33;8.90;;;8.00;;
1831;SDS011;1680;48.106;11.708;2023-07-24T09:16:02;8.90;;;8.00;;
1831;SDS011;1680;48.106;11.708;2023-07-24T09:18:38;10.30;;;8.20;;
1831;SDS011;1680;48.106;11.708;2023-07-24T09:21:06;9.23;;;8.20;;
1831;SDS011;1680;48.106;11.708;2023-07-24T09:23:35;8.77;;;7.87;;
1831;SDS011;1680;48.106;11.708;2023-07-24T09:26:05;10.00;;;8.50;;
1831;SDS011;1680;48.106;11.708;2023-07-24T09:28:32;8.77;;;7.87;;
1831;SDS011;1680;48.106;11.708;2023-07-24T09:31:00;10.87;;;8.27;;
1831;SDS011;1680;48.106;11.708;2023-07-24T09:33:34;9.43;;;8.00;;
1831;SDS011;1680;48.106;11.708;2023-07-24T09:36:02;11.70;;;8.80;;
1831;SDS011;1680;48.106;11.708;2023-07-24T09:38:30;11.80;;;8.70;;
1831;SDS011;1680;48.106;11.708;2023-07-24T09:41:00;9.50;;;8.53;;
1831;SDS011;1680;48.106;11.708;2023-07-24T09:43:28;9.70;;;8.53;;
1831;SDS011;1680;48.106;11.708;2023-07-24T09:45:56;8.90;;;8.00;;
1831;SDS011;1680;48.106;11.708;2023-07-24T09:48:24;10.73;;;8.03;;
1831;SDS011;1680;48.106;11.708;2023-07-24T09:50:53;7.97;;;6.97;;
1831;SDS011;1680;48.106;11.708;2023-07-24T09:53:21;9.40;;;7.47;;
1831;SDS011;1680;48.106;11.708;2023-07-24T09:55:56;8.03;;;6.20;;
1831;SDS011;1680;48.106;11.708;2023-07-24T09:58:25;7.23;;;6.00;;
1831;SDS011;1680;48.106;11.708;2023-07-24T10:00:53;7.17;;;5.90;;
1831;SDS011;1680;48.106;11.708;2023-07-24T10:03:21;7.30;;;6.10;;
1831;SDS011;1680;48.106;11.708;2023-07-24T10:05:49;8.27;;;6.13;;
1831;SDS011;1680;48.106;11.708;2023-07-24T10:08:17;8.83;;;6.30;;
1831;SDS011;1680;48.106;11.708;2023-07-24T10:10:45;6.23;;;5.23;;
1831;SDS011;1680;48.106;11.708;2023-07-24T10:13:16;5.23;;;4.73;;
1831;SDS011;1680;48.106;11.708;2023-07-24T10:15:46;4.60;;;4.20;;
1831;SDS011;1680;48.106;11.708;2023-07-24T10:18:15;5.20;;;4.80;;
1831;SDS011;1680;48.106;11.708;2023-07-24T10:20:43;5.57;;;5.00;;
1831;SDS011;1680;48.106;11.708;2023-07-24T10:23:11;6.07;;;5.47;;
1831;SDS011;1680;48.106;11.708;2023-07-24T10:25:45;5.70;;;5.00;;
1831;SDS011;1680;48.106;11.708;2023-07-24T10:28:12;6.20;;;5.60;;
1831;SDS011;1680;48.106;11.708;2023-07-24T10:30:41;6.50;;;5.30;;
1831;SDS011;1680;48.106;11.708;2023-07-24T10:33:12;5.37;;;4.87;;
1831;SDS011;1680;48.106;11.708;2023-07-24T10:35:41;6.13;;;5.53;;
1831;SDS011;1680;48.106;11.708;2023-07-24T10:38:10;6.40;;;5.57;;
1831;SDS011;1680;48.106;11.708;2023-07-24T10:40:39;6.77;;;6.07;;
1831;SDS011;1680;48.106;11.708;2023-07-24T10:43:07;5.80;;;5.20;;
1831;SDS011;1680;48.106;11.708;2023-07-24T10:45:39;6.37;;;5.77;;
1831;SDS011;1680;48.106;11.708;2023-07-24T10:48:12;5.80;;;5.30;;
1831;SDS011;1680;48.106;11.708;2023-07-24T10:50:39;7.90;;;5.53;;
1831;SDS011;1680;48.106;11.708;2023-07-24T10:53:08;5.80;;;5.30;;
1831;SDS011;1680;48.106;11.708;2023-07-24T10:55:35;6.20;;;5.60;;
1831;SDS011;1680;48.106;11.708;2023-07-24T10:58:03;6.00;;;5.40;;
1831;SDS011;1680;48.106;11.708;2023-07-24T11:00:30;6.70;;;5.70;;
1831;SDS011;1680;48.106;11.708;2023-07-24T11:02:57;6.03;;;5.33;;
1831;SDS011;1680;48.106;11.708;2023-07-24T11:05:26;5.80;;;5.30;;
1831;SDS011;1680;48.106;11.708;2023-07-24T11:07:54;7.37;;;5.60;;
1831;SDS011;1680;48.106;11.708;2023-07-24T11:10:22;6.40;;;5.70;;
1831;SDS011;1680;48.106;11.708;2023-07-24T11:12:49;7.03;;;6.33;;
1831;SDS011;1680;48.106;11.708;2023-07-24T11:15:23;6.83;;;5.90;;
1831;SDS011;1680;48.106;11.708;2023-07-24T11:17:52;6.40;;;5.70;;
1831;SDS011;1680;48.106;11.708;2023-07-24T11:20:20;7.27;;;6.23;;
1831;SDS011;1680;48.106;11.708;2023-07-24T11:22:48;6.40;;;5.80;;
1831;SDS011;1680;48.106;11.708;2023-07-24T11:25:15;6.47;;;5.87;;
1831;SDS011;1680;48.106;11.708;2023-07-24T11:27:43;6.57;;;5.87;;
1831;SDS011;1680;48.106;11.708;2023-07-24T11:30:12;8.40;;;6.50;;
1831;SDS011;1680;48.106;11.708;2023-07-24T11:32:45;6.53;;;5.83;;
1831;SDS011;1680;48.106;11.708;2023-07-24T11:35:13;8.10;;;7.30;;
1831;SDS011;1680;48.106;11.708;2023-07-24T11:37:41;7.83;;;7.03;;
1831;SDS011;1680;48.106;11.708;2023-07-24T11:40:09;8.23;;;7.50;;
1831;SDS011;1680;48.106;11.708;2023-07-24T11:42:40;8.63;;;7.73;;
1831;SDS011;1680;48.106;11.708;2023-07-24T11:45:09;8.27;;;6.83;;
1831;SDS011;1680;48.106;11.708;2023-07-24T11:47:43;7.20;;;6.50;;
1831;SDS011;1680;48.106;11.708;2023-07-24T11:50:12;7.50;;;6.03;;
1831;SDS011;1680;48.106;11.708;2023-07-24T11:52:41;8.03;;;6.57;;
1831;SDS011;1680;48.106;11.708;2023-07-24T11:55:11;7.30;;;6.70;;
1831;SDS011;1680;48.106;11.708;2023-07-24T11:57:38;7.83;;;7.03;;
1831;SDS011;1680;48.106;11.708;2023-07-24T12:00:16;7.13;;;6.43;;
1831;SDS011;1680;48.106;11.708;2023-07-24T12:02:45;7.53;;;6.83;;
1831;SDS011;1680;48.106;11.708;2023-07-24T12:05:12;7.03;;;6.30;;
1831;SDS011;1680;48.106;11.708;2023-07-24T12:07:42;7.87;;;7.07;;
1831;SDS011;1680;48.106;11.708;2023-07-24T12:10:12;7.90;;;7.00;;
1831;SDS011;1680;48.106;11.708;2023-07-24T12:12:41;9.50;;;7.43;;
1831;SDS011;1680;48.106;11.708;2023-07-24T12:15:11;9.93;;;7.17;;
1831;SDS011;1680;48.106;11.708;2023-07-24T12:17:40;11.90;;;7.20;;
1831;SDS011;1680;48.106;11.708;2023-07-24T12:20:08;7.20;;;6.60;;
1831;SDS011;1680;48.106;11.708;2023-07-24T12:22:37;8.10;;;7.07;;
1831;SDS011;1680;48.106;11.708;2023-07-24T12:25:05;9.60;;;5.50;;
1831;SDS011;1680;48.106;11.708;2023-07-24T12:27:34;5.47;;;4.97;;
1831;SDS011;1680;48.106;11.708;2023-07-24T12:30:02;5.70;;;5.10;;
1831;SDS011;1680;48.106;11.708;2023-07-24T12:32:31;4.83;;;4.40;;
1831;SDS011;1680;48.106;11.708;2023-07-24T12:34:58;6.13;;;5.50;;
1831;SDS011;1680;48.106;11.708;2023-07-24T12:37:25;5.80;;;5.20;;
1831;SDS011;1680;48.106;11.708;2023-07-24T12:39:52;7.33;;;5.17;;
1831;SDS011;1680;48.106;11.708;2023-07-24T12:42:25;7.13;;;6.13;;
1831;SDS011;1680;48.106;11.708;2023-07-24T12:44:58;6.80;;;5.40;;
1831;SDS011;1680;48.106;11.708;2023-07-24T12:47:27;6.47;;;5.83;;
1831;SDS011;1680;48.106;11.708;2023-07-24T12:49:55;5.77;;;5.20;;
1831;SDS011;1680;48.106;11.708;2023-07-24T12:52:22;7.07;;;6.47;;
1831;SDS011;1680;48.106;11.708;2023-07-24T12:54:50;7.20;;;5.97;;
1831;SDS011;1680;48.106;11.708;2023-07-24T12:57:17;7.17;;;6.10;;
1831;SDS011;1680;48.106;11.708;2023-07-24T12:59:44;6.80;;;5.60;;
1831;SDS011;1680;48.106;11.708;2023-07-24T13:02:13;7.27;;;6.40;;
1831;SDS011;1680;48.106;11.708;2023-07-24T13:04:40;6.50;;;5.90;;
1831;SDS011;1680;48.106;11.708;2023-07-24T13:07:09;7.60;;;6.20;;
1831;SDS011;1680;48.106;11.708;2023-07-24T13:09:36;6.60;;;6.00;;
1831;SDS011;1680;48.106;11.708;2023-07-24T13:12:04;8.07;;;6.47;;
1831;SDS011;1680;48.106;11.708;2023-07-24T13:14:32;6.70;;;6.00;;
1831;SDS011;1680;48.106;11.708;2023-07-24T13:16:59;6.83;;;6.13;;
1831;SDS011;1680;48.106;11.708;2023-07-24T13:19:27;6.50;;;5.90;;
1831;SDS011;1680;48.106;11.708;2023-07-24T13:21:54;6.67;;;5.83;;
1831;SDS011;1680;48.106;11.708;2023-07-24T13:24:22;5.47;;;4.90;;
1831;SDS011;1680;48.106;11.708;2023-07-24T13:26:49;6.53;;;5.83;;
1831;SDS011;1680;48.106;11.708;2023-07-24T13:29:16;5.93;;;4.93;;
1831;SDS011;1680;48.106;11.708;2023-07-24T13:31:43;5.87;;;5.13;;
1831;SDS011;1680;48.106;11.708;2023-07-24T13:34:11;6.50;;;5.50;;
1831;SDS011;1680;48.106;11.708;2023-07-24T13:36:39;5.50;;;4.90;;
1831;SDS011;1680;48.106;11.708;2023-07-24T13:39:06;6.07;;;4.90;;
1831;SDS011;1680;48.106;11.708;2023-07-24T13:41:33;6.00;;;5.40;;
1831;SDS011;1680;48.106;11.708;2023-07-24T13:44:01;5.30;;;4.80;;
1831;SDS011;1680;48.106;11.708;2023-07-24T13:46:28;5.40;;;4.90;;
1831;SDS011;1680;48.106;11.708;2023-07-24T13:48:55;5.47;;;4.70;;
1831;SDS011;1680;48.106;11.708;2023-07-24T13:51:22;5.53;;;5.03;;
1831;SDS011;1680;48.106;11.708;2023-07-24T13:53:51;5.77;;;5.03;;
1831;SDS011;1680;48.106;11.708;2023-07-24T13:56:19;6.03;;;4.80;;
1831;SDS011;1680;48.106;11.708;2023-07-24T13:58:48;5.93;;;5.00;;
1831;SDS011;1680;48.106;11.708;2023-07-24T14:01:15;6.43;;;5.30;;
1831;SDS011;1680;48.106;11.708;2023-07-24T14:03:42;5.63;;;5.00;;
1831;SDS011;1680;48.106;11.708;2023-07-24T14:06:09;6.30;;;5.30;;
1831;SDS011;1680;48.106;11.708;2023-07-24T14:08:36;5.30;;;4.80;;
1831;SDS011;1680;48.106;11.708;2023-07-24T14:11:05;6.00;;;5.40;;
1831;SDS011;1680;48.106;11.708;2023-07-24T14:13:32;5.37;;;4.87;;
1831;SDS011;1680;48.106;11.708;2023-07-24T14:15:59;5.20;;;4.70;;
1831;SDS011;1680;48.106;11.708;2023-07-24T14:18:26;6.07;;;5.50;;
1831;SDS011;1680;48.106;11.708;2023-07-24T14:20:54;5.17;;;4.67;;
1831;SDS011;1680;48.106;11.708;2023-07-24T14:23:21;5.60;;;5.00;;
1831;SDS011;1680;48.106;11.708;2023-07-24T14:25:49;6.70;;;5.40;;
1831;SDS011;1680;48.106;11.708;2023-07-24T14:28:17;6.10;;;5.50;;
1831;SDS011;1680;48.106;11.708;2023-07-24T14:30:44;9.10;;;5.50;;
1831;SDS011;1680;48.106;11.708;2023-07-24T14:33:12;5.10;;;4.50;;
1831;SDS011;1680;48.106;11.708;2023-07-24T14:35:39;5.90;;;5.13;;
1831;SDS011;1680;48.106;11.708;2023-07-24T14:38:06;6.40;;;5.80;;
1831;SDS011;1680;48.106;11.708;2023-07-24T14:40:33;6.13;;;5.30;;
1831;SDS011;1680;48.106;11.708;2023-07-24T14:43:00;6.60;;;5.17;;
1831;SDS011;1680;48.106;11.708;2023-07-24T14:45:29;5.73;;;5.23;;
1831;SDS011;1680;48.106;11.708;2023-07-24T14:47:56;5.90;;;5.30;;
1831;SDS011;1680;48.106;11.708;2023-07-24T14:50:23;5.80;;;5.23;;
1831;SDS011;1680;48.106;11.708;2023-07-24T14:52:50;6.80;;;5.80;;
1831;SDS011;1680;48.106;11.708;2023-07-24T14:55:18;7.07;;;6.37;;
1831;SDS011;1680;48.106;11.708;2023-07-24T14:57:45;5.70;;;5.10;;